createdAt,value
2019-03-17T00:03:10.916Z,7.30
2019-03-17T00:07:23.963Z,9.67
2019-03-17T00:11:36.452Z,13.03
2019-03-17T00:15:48.919Z,11.00
2019-03-17T00:20:01.549Z,9.63
2019-03-17T00:24:14.108Z,10.40
2019-03-17T00:28:27.539Z,12.80
2019-03-17T00:32:39.861Z,10.83
2019-03-17T00:36:52.843Z,12.93
2019-03-17T00:41:05.503Z,12.53
2019-03-17T00:45:18.140Z,12.07
2019-03-17T00:49:30.843Z,10.60
2019-03-17T00:53:43.566Z,12.17
2019-03-17T00:57:56.360Z,8.43
2019-03-17T01:02:08.803Z,9.90
2019-03-17T01:06:21.211Z,12.63
2019-03-17T01:10:34.002Z,8.03
2019-03-17T01:14:46.468Z,9.80
2019-03-17T01:18:58.836Z,7.93
2019-03-17T01:23:11.080Z,6.73
2019-03-17T01:27:24.357Z,9.03
2019-03-17T01:31:36.708Z,9.43
2019-03-17T01:35:49.320Z,10.17
2019-03-17T01:40:01.765Z,8.40
2019-03-17T01:44:14.080Z,5.67
2019-03-17T01:48:27.595Z,6.40
2019-03-17T01:52:39.949Z,13.27
2019-03-17T01:56:53.492Z,8.83
2019-03-17T02:01:06.000Z,11.77
2019-03-17T02:05:22.266Z,9.47
2019-03-17T02:09:32.704Z,11.60
2019-03-17T02:13:45.091Z,6.07
2019-03-17T02:17:57.493Z,12.33
2019-03-17T02:22:10.195Z,9.83
2019-03-17T02:26:22.658Z,13.63
2019-03-17T02:30:35.549Z,11.53
2019-03-17T02:34:48.195Z,10.80
2019-03-17T02:39:01.756Z,10.47
2019-03-17T02:43:14.180Z,11.90
2019-03-17T02:47:26.954Z,7.17
2019-03-17T02:51:39.563Z,7.17
2019-03-17T02:55:51.903Z,6.87
2019-03-17T03:00:04.695Z,9.07
2019-03-17T03:04:17.260Z,8.47
2019-03-17T03:08:29.801Z,10.63
2019-03-17T03:12:42.559Z,8.47
2019-03-17T03:16:54.917Z,7.97
2019-03-17T03:21:07.516Z,6.93
2019-03-17T03:25:20.225Z,6.03
2019-03-17T03:29:32.677Z,5.13
2019-03-17T03:33:45.079Z,7.03
2019-03-17T03:37:57.880Z,6.27
2019-03-17T03:42:10.439Z,5.50
2019-03-17T03:46:22.961Z,7.30
2019-03-17T03:50:35.349Z,6.00
2019-03-17T03:54:48.120Z,8.87
2019-03-17T03:59:00.603Z,8.47
2019-03-17T04:03:13.008Z,7.27
2019-03-17T04:07:26.372Z,12.33
2019-03-17T04:11:39.203Z,8.60
2019-03-17T04:15:51.698Z,9.67
2019-03-17T04:20:05.147Z,8.50
2019-03-17T04:24:17.752Z,9.77
2019-03-17T04:28:30.447Z,9.70
2019-03-17T04:32:43.012Z,11.37
2019-03-17T04:36:56.454Z,10.57
2019-03-17T04:41:09.040Z,12.67
2019-03-17T04:45:21.368Z,6.40
2019-03-17T04:49:33.951Z,10.50
2019-03-17T04:53:46.415Z,8.97
2019-03-17T04:57:59.995Z,12.47
2019-03-17T05:02:13.696Z,6.70
2019-03-17T05:06:26.212Z,10.73
2019-03-17T05:10:38.896Z,6.23
2019-03-17T05:14:51.255Z,9.80
2019-03-17T05:19:03.676Z,10.10
2019-03-17T05:23:16.772Z,11.70
2019-03-17T05:27:29.564Z,10.07
2019-03-17T05:31:41.965Z,7.80
2019-03-17T05:35:54.380Z,3.67
2019-03-17T05:40:07.164Z,5.40
2019-03-17T05:44:19.819Z,4.13
2019-03-17T05:48:32.487Z,6.50
2019-03-17T05:52:45.018Z,8.70
2019-03-17T05:56:58.488Z,6.70
2019-03-17T06:01:10.971Z,8.60
2019-03-17T06:05:23.684Z,5.00
2019-03-17T06:09:36.445Z,9.10
2019-03-17T06:13:51.294Z,4.60
2019-03-17T06:18:04.719Z,7.83
2019-03-17T06:22:17.074Z,9.13
2019-03-17T06:26:30.523Z,3.77
2019-03-17T06:30:43.452Z,7.40
2019-03-17T06:34:56.013Z,7.47
2019-03-17T06:39:09.398Z,6.33
2019-03-17T06:43:21.920Z,3.60
2019-03-17T06:47:34.234Z,6.23
2019-03-17T06:51:46.632Z,5.97
2019-03-17T06:55:59.437Z,11.27
2019-03-17T07:00:11.990Z,12.83
2019-03-17T07:04:24.454Z,6.07
2019-03-17T07:08:37.189Z,4.43
2019-03-17T07:12:49.784Z,4.97
2019-03-17T07:17:02.634Z,6.63
2019-03-17T07:21:15.215Z,5.03
2019-03-17T07:25:27.506Z,6.47
2019-03-17T07:29:40.295Z,4.50
2019-03-17T07:33:53.139Z,7.57
2019-03-17T07:38:06.052Z,4.23
2019-03-17T07:42:18.503Z,5.93
2019-03-17T07:46:30.907Z,7.07
2019-03-17T07:50:43.507Z,6.13
2019-03-17T07:54:55.956Z,8.47
2019-03-17T07:59:08.258Z,7.70
2019-03-17T08:03:20.458Z,7.30
2019-03-17T08:07:33.223Z,8.53
2019-03-17T08:11:45.907Z,8.23
2019-03-17T08:15:58.227Z,7.20
2019-03-17T08:20:12.350Z,6.40
2019-03-17T08:24:24.816Z,5.90
2019-03-17T08:28:37.012Z,7.40
2019-03-17T08:32:49.219Z,5.50
2019-03-17T08:37:01.984Z,13.87
2019-03-17T08:41:14.574Z,10.27
2019-03-17T08:45:26.987Z,7.87
2019-03-17T08:49:40.320Z,7.57
2019-03-17T08:53:52.531Z,5.00
2019-03-17T08:58:05.980Z,6.80
2019-03-17T09:02:18.380Z,6.87
2019-03-17T09:06:31.255Z,4.90
2019-03-17T09:10:44.005Z,4.57
2019-03-17T09:14:56.732Z,3.80
2019-03-17T09:19:09.184Z,3.87
2019-03-17T09:23:21.580Z,7.17
2019-03-17T09:27:34.280Z,4.97
2019-03-17T09:31:46.736Z,7.37
2019-03-17T09:35:59.048Z,5.17
2019-03-17T09:40:12.695Z,8.67
2019-03-17T09:44:24.999Z,4.87
2019-03-17T09:48:38.299Z,5.77
2019-03-17T09:52:50.743Z,8.70
2019-03-17T09:57:03.451Z,13.43
2019-03-17T10:01:15.907Z,11.80
2019-03-17T10:05:28.315Z,10.73
2019-03-17T10:09:41.076Z,13.20
2019-03-17T10:13:53.795Z,11.20
2019-03-17T10:18:06.544Z,8.97
2019-03-17T10:22:19.006Z,9.00
2019-03-17T10:26:31.419Z,7.47
2019-03-17T10:30:43.724Z,6.43
2019-03-17T10:34:56.036Z,9.57
2019-03-17T10:39:12.763Z,9.73
2019-03-17T10:43:22.992Z,10.23
2019-03-17T10:47:35.718Z,12.23
2019-03-17T10:51:48.168Z,11.47
2019-03-17T10:56:00.472Z,17.73
2019-03-17T11:00:14.956Z,12.57
2019-03-17T11:04:27.564Z,10.97
2019-03-17T11:08:39.868Z,8.67
2019-03-17T11:12:52.747Z,8.97
2019-03-17T11:17:05.286Z,11.80
2019-03-17T11:21:17.532Z,13.13
2019-03-17T11:25:29.836Z,5.57
2019-03-17T11:29:43.087Z,5.53
2019-03-17T11:33:55.475Z,7.97
2019-03-17T11:38:08.079Z,5.67
2019-03-17T11:42:20.630Z,13.97
2019-03-17T11:46:33.027Z,5.90
2019-03-17T11:50:45.732Z,7.13
2019-03-17T11:54:58.194Z,11.43
2019-03-17T11:59:10.593Z,5.23
2019-03-17T12:03:22.795Z,9.90
2019-03-17T12:07:35.495Z,9.97
2019-03-17T12:11:47.956Z,3.43
2019-03-17T12:16:00.429Z,7.07
2019-03-17T12:20:13.427Z,6.10
2019-03-17T12:24:25.908Z,3.80
2019-03-17T12:28:38.704Z,4.03
2019-03-17T12:32:51.328Z,6.37
2019-03-17T12:37:03.685Z,5.77
2019-03-17T12:41:16.455Z,4.47
2019-03-17T12:45:29.004Z,6.37
2019-03-17T12:49:41.807Z,7.80
2019-03-17T12:53:54.356Z,3.20
2019-03-17T12:58:07.807Z,5.57
2019-03-17T13:02:20.222Z,7.13
2019-03-17T13:06:32.626Z,4.17
2019-03-17T13:10:45.312Z,7.13
2019-03-17T13:14:57.899Z,5.93
2019-03-17T13:19:10.819Z,3.90
2019-03-17T13:23:23.315Z,7.00
2019-03-17T13:27:35.728Z,5.60
2019-03-17T13:31:48.038Z,8.47
2019-03-17T13:36:00.252Z,6.27
2019-03-17T13:40:14.015Z,5.90
2019-03-17T13:44:27.132Z,7.37
2019-03-17T13:48:40.013Z,6.47
2019-03-17T13:52:52.584Z,6.97
2019-03-17T13:57:06.194Z,7.33
2019-03-17T14:01:18.645Z,11.40
2019-03-17T14:05:31.055Z,11.77
2019-03-17T14:09:44.301Z,10.20
2019-03-17T14:13:56.828Z,4.47
2019-03-17T14:18:09.487Z,8.33
2019-03-17T14:22:22.015Z,5.60
2019-03-17T14:26:34.360Z,3.23
2019-03-17T14:30:47.044Z,2.10
2019-03-17T14:34:59.503Z,4.23
2019-03-17T14:39:11.999Z,4.53
2019-03-17T14:43:24.880Z,7.70
2019-03-17T14:47:37.264Z,3.50
2019-03-17T14:51:49.747Z,4.47
2019-03-17T14:56:02.358Z,7.77
2019-03-17T15:00:16.934Z,15.60
2019-03-17T15:04:29.653Z,7.63
2019-03-17T15:08:41.906Z,7.57
2019-03-17T15:12:54.315Z,8.53
2019-03-17T15:17:07.917Z,8.53
2019-03-17T15:21:20.638Z,9.67
2019-03-17T15:25:33.159Z,5.67
2019-03-17T15:29:45.885Z,7.97
2019-03-17T15:33:58.544Z,11.07
2019-03-17T15:38:10.858Z,10.20
2019-03-17T15:42:23.165Z,10.17
2019-03-17T15:46:36.613Z,11.23
2019-03-17T15:50:48.902Z,8.73
2019-03-17T15:55:01.860Z,8.10
2019-03-17T15:59:14.263Z,5.93
2019-03-17T16:03:26.557Z,8.27
2019-03-17T16:07:42.447Z,6.77
2019-03-17T16:11:53.352Z,7.23
2019-03-17T16:16:05.876Z,9.90
2019-03-17T16:20:19.580Z,13.90
2019-03-17T16:24:32.403Z,8.70
2019-03-17T16:28:44.923Z,10.10
2019-03-17T16:32:57.184Z,11.67
2019-03-17T16:37:10.038Z,7.23
2019-03-17T16:41:22.702Z,9.57
2019-03-17T16:45:35.123Z,7.20
2019-03-17T16:49:47.889Z,9.60
2019-03-17T16:54:00.549Z,8.33
2019-03-17T16:58:13.532Z,9.37
2019-03-17T17:02:26.134Z,12.87
2019-03-17T17:06:38.531Z,16.30
2019-03-17T17:10:51.131Z,15.40
2019-03-17T17:15:03.816Z,9.40
2019-03-17T17:19:16.198Z,12.00
2019-03-17T17:23:28.891Z,9.17
2019-03-17T17:27:42.532Z,7.40
2019-03-17T17:31:54.948Z,11.40
2019-03-17T17:36:07.190Z,10.83
2019-03-17T17:40:20.202Z,7.30
2019-03-17T17:44:32.534Z,6.70
2019-03-17T17:48:44.836Z,9.67
2019-03-17T17:52:57.055Z,8.03
2019-03-17T17:57:09.751Z,8.17
2019-03-17T18:01:22.264Z,6.90
2019-03-17T18:05:34.662Z,6.17
2019-03-17T18:09:47.296Z,5.30
2019-03-17T18:13:59.865Z,10.10
2019-03-17T18:18:12.435Z,9.07
2019-03-17T18:22:25.224Z,10.67
2019-03-17T18:26:37.711Z,7.67
2019-03-17T18:30:49.919Z,11.80
2019-03-17T18:35:02.196Z,11.47
2019-03-17T18:39:14.923Z,12.60
2019-03-17T18:43:27.279Z,7.40
2019-03-17T18:47:39.575Z,9.87
2019-03-17T18:51:52.379Z,21.43
2019-03-17T18:56:05.137Z,11.90
2019-03-17T19:00:18.543Z,9.17
2019-03-17T19:04:30.968Z,11.80
2019-03-17T19:08:43.680Z,10.03
2019-03-17T19:12:56.135Z,13.13
2019-03-17T19:17:08.676Z,14.10
2019-03-17T19:21:21.432Z,14.23
2019-03-17T19:25:33.891Z,10.00
2019-03-17T19:29:46.190Z,11.90
2019-03-17T19:33:58.401Z,7.77
2019-03-17T19:38:11.067Z,10.37
2019-03-17T19:42:23.818Z,11.03
2019-03-17T19:46:36.161Z,8.43
2019-03-17T19:50:48.860Z,12.17
2019-03-17T19:55:01.339Z,11.13
2019-03-17T19:59:14.211Z,8.33
2019-03-17T20:03:26.777Z,10.40
2019-03-17T20:07:39.953Z,10.63
2019-03-17T20:11:52.541Z,14.80
2019-03-17T20:16:06.274Z,10.80
2019-03-17T20:20:19.301Z,10.93
2019-03-17T20:24:31.888Z,15.60
2019-03-17T20:28:45.352Z,15.13
2019-03-17T20:32:58.371Z,11.00
2019-03-17T20:37:12.203Z,12.10
2019-03-17T20:41:24.847Z,15.33
2019-03-17T20:45:37.256Z,10.93
2019-03-17T20:49:50.007Z,12.57
2019-03-17T20:54:02.462Z,13.70
2019-03-17T20:58:15.466Z,9.57
2019-03-17T21:02:28.130Z,13.03
2019-03-17T21:06:41.226Z,10.90
2019-03-17T21:10:53.894Z,11.80
2019-03-17T21:15:06.952Z,12.70
2019-03-17T21:19:19.602Z,15.53
2019-03-17T21:23:32.564Z,10.97
2019-03-17T21:27:45.116Z,11.07
2019-03-17T21:31:57.896Z,11.13
2019-03-17T21:36:10.452Z,9.83
2019-03-17T21:40:22.879Z,11.97
2019-03-17T21:44:35.818Z,11.50
2019-03-17T21:48:49.595Z,16.20
2019-03-17T21:53:01.956Z,12.43
2019-03-17T21:57:14.946Z,12.17
2019-03-17T22:01:27.902Z,10.77
2019-03-17T22:05:40.794Z,13.37
2019-03-17T22:09:53.153Z,13.73
2019-03-17T22:14:12.063Z,17.43
2019-03-17T22:18:20.272Z,12.00
2019-03-17T22:22:32.677Z,15.20
2019-03-17T22:26:45.553Z,11.50
2019-03-17T22:30:58.000Z,13.10
2019-03-17T22:35:10.553Z,15.17
2019-03-17T22:39:24.764Z,14.20
2019-03-17T22:43:37.195Z,15.73
2019-03-17T22:47:49.549Z,15.80
2019-03-17T22:52:02.296Z,14.27
2019-03-17T22:56:14.842Z,15.77
2019-03-17T23:00:46.940Z,17.17
2019-03-17T23:04:59.332Z,18.90
2019-03-17T23:09:12.670Z,18.87
2019-03-17T23:13:24.988Z,16.17
2019-03-17T23:17:37.456Z,16.73
2019-03-17T23:21:50.354Z,19.07
2019-03-17T23:26:02.852Z,11.27
2019-03-17T23:30:16.525Z,17.23
2019-03-17T23:34:28.903Z,13.80
2019-03-17T23:38:41.801Z,17.03
2019-03-17T23:42:54.357Z,15.33
2019-03-17T23:47:07.904Z,19.57
2019-03-17T23:51:20.487Z,15.03
2019-03-17T23:55:33.300Z,20.47
2019-03-17T23:59:45.765Z,21.13
